Darstellungsparameter: Aktuell verwendete Einstellungen:
Skalierung der Graphiken ... ?
xyx+y,   Skalierungsfaktor:      Skalierung: Modus: x, Faktor: 1
Darstellungszeitraum ... ?
Vom - - bis: - -   Zeitraum: 29.08.2011 - 04.09.2011
Min/Max/Avg-Anzeige ... ?
Zeige MMA aktuell
Zeige MMA Monat
Zeige MMA alles
Zeige --A aktuell
Zeige --A Monat
Zeige --A alles
Keine MMA-Anzeige
MMA:
Keine MMA-Graphiken
MMA-Basis: 29.08.2011 - 04.09.2011
Quicknavigation für Darstellung... ?
Tage:      1T, 2T, 3T, 5T -1T -2T -3T -5T +1T +2T +3T +5T
Wochen: 1W, 2W, 3W -1W -2W -3W +1W +2W +3W
Monate: 1M, 3M, 6M -1M -3M -6M +1M +3M +6M
Jahre:    1J, 3J, 5J, 10J -1J -3J -5J -10J +1J +3J +5J +10J
Nutze für die Darstellung ... ?
Originaldaten oder Mittelwerte auf ...
Stundenbasis Tagesbasis Wochenbasis
Monatsbasis Jahresbasis      Datenbasis: Original-Daten
Darstellen als:
Statistik (Auto) Statistik J:M      Darstellung:
Zur Graphik,    zurück zur Übersicht aller Sensoren.
 
Tabellarische Datenbersicht: ?
 
Sensor: Nr:Datum:Temp:Feuchte:Taupunkt:
Aussen-T/F 1 29-08-2011 00:06:03 11.6 C 79 % 8.09 C
2 29-08-2011 00:18:03 10.7 C 81 % 7.58 C
3 29-08-2011 00:30:03 10.8 C 82 % 7.85 C
4 29-08-2011 00:42:04 10.8 C 84 % 8.21 C
5 29-08-2011 00:54:04 11.6 C 84 % 8.99 C
6 29-08-2011 01:06:04 11.5 C 83 % 8.72 C
7 29-08-2011 01:18:04 11.3 C 82 % 8.34 C
8 29-08-2011 01:30:04 11.5 C 80 % 8.17 C
9 29-08-2011 01:42:04 12.1 C 75 % 7.81 C
10 29-08-2011 01:54:04 11.9 C 76 % 7.81 C
11 29-08-2011 02:06:04 12.2 C 74 % 7.71 C
12 29-08-2011 02:18:04 12.2 C 73 % 7.51 C
13 29-08-2011 02:30:04 12.2 C 74 % 7.71 C
14 29-08-2011 02:42:04 12.2 C 74 % 7.71 C
15 29-08-2011 02:54:04 12.3 C 73 % 7.61 C
16 29-08-2011 03:06:04 12.3 C 73 % 7.61 C
17 29-08-2011 03:18:04 12.4 C 74 % 7.9 C
18 29-08-2011 03:30:04 12.5 C 75 % 8.19 C
19 29-08-2011 03:42:04 12.7 C 73 % 7.99 C
20 29-08-2011 03:54:04 13 C 70 % 7.66 C
21 29-08-2011 04:06:04 13 C 70 % 7.66 C
22 29-08-2011 04:18:04 12.7 C 71 % 7.58 C
23 29-08-2011 04:30:04 12.6 C 72 % 7.69 C
24 29-08-2011 04:42:04 12.1 C 74 % 7.61 C
25 29-08-2011 04:54:04 11.8 C 78 % 8.09 C
Sensor: Nr:Datum:Temp:Feuchte:Taupunkt:
Aussen-T/F 26 29-08-2011 05:06:05 11.5 C 79 % 7.99 C
27 29-08-2011 05:18:05 11.4 C 80 % 8.08 C
28 29-08-2011 05:30:05 11.3 C 81 % 8.16 C
29 29-08-2011 05:42:05 11 C 82 % 8.05 C
30 29-08-2011 05:54:05 10.8 C 83 % 8.03 C
31 29-08-2011 06:06:05 10.7 C 84 % 8.11 C
32 29-08-2011 06:18:05 10.2 C 84 % 7.62 C
33 29-08-2011 06:30:05 10.2 C 85 % 7.79 C
34 29-08-2011 06:42:05 10.2 C 85 % 7.79 C
35 29-08-2011 06:54:05 10.1 C 86 % 7.87 C
36 29-08-2011 07:06:05 10 C 86 % 7.77 C
37 29-08-2011 07:18:03 9.7 C 87 % 7.64 C
38 29-08-2011 07:30:03 10 C 87 % 7.94 C
39 29-08-2011 07:42:03 10.2 C 87 % 8.14 C
40 29-08-2011 07:54:03 10.4 C 87 % 8.33 C
41 29-08-2011 08:06:02 10.5 C 87 % 8.43 C
42 29-08-2011 08:18:02 10.8 C 87 % 8.73 C
43 29-08-2011 08:30:02 11.4 C 85 % 8.97 C
44 29-08-2011 08:42:02 11.9 C 83 % 9.11 C
45 29-08-2011 08:54:02 12 C 79 % 8.48 C
46 29-08-2011 09:06:02 12.5 C 75 % 8.19 C
47 29-08-2011 09:18:03 13.1 C 71 % 7.97 C
48 29-08-2011 09:30:03 13.6 C 66 % 7.38 C
49 29-08-2011 09:42:02 13.9 C 66 % 7.66 C
50 29-08-2011 09:54:03 14.2 C 63 % 7.27 C
Sensor: Nr:Datum:Temp:Feuchte:Taupunkt:
Aussen-T/F 51 29-08-2011 10:06:02 14.4 C 62 % 7.22 C
52 29-08-2011 10:18:02 14.7 C 60 % 7.03 C
53 29-08-2011 10:30:02 15.2 C 57 % 6.75 C
54 29-08-2011 10:42:02 15.2 C 58 % 7 C
55 29-08-2011 10:54:02 15.8 C 56 % 7.05 C
56 29-08-2011 11:06:02 16.4 C 53 % 6.81 C
57 29-08-2011 11:18:02 16.8 C 51 % 6.62 C
58 29-08-2011 11:30:02 17 C 49 % 6.22 C
59 29-08-2011 11:42:02 16.9 C 46 % 5.22 C
60 29-08-2011 11:54:02 17.2 C 45 % 5.18 C
61 29-08-2011 12:06:01 17.7 C 43 % 4.98 C
62 29-08-2011 12:18:02 18.2 C 41 % 4.75 C
63 29-08-2011 12:30:02 18 C 40 % 4.21 C
64 29-08-2011 12:42:02 18 C 41 % 4.57 C
65 29-08-2011 12:54:02 18 C 42 % 4.91 C
66 29-08-2011 13:06:02 17.8 C 44 % 5.4 C
67 29-08-2011 13:18:02 18.2 C 41 % 4.75 C
68 29-08-2011 13:30:02 18.3 C 40 % 4.48 C
69 29-08-2011 13:42:03 18 C 40 % 4.21 C
70 29-08-2011 13:54:02 19.3 C 38 % 4.64 C
71 29-08-2011 14:06:01 18.3 C 38 % 3.75 C
72 29-08-2011 14:18:02 19.3 C 37 % 4.26 C
73 29-08-2011 14:30:02 18.2 C 38 % 3.66 C
74 29-08-2011 14:42:02 17.9 C 38 % 3.4 C
75 29-08-2011 14:54:02 18.5 C 35 % 2.77 C
Sensor: Nr:Datum:Temp:Feuchte:Taupunkt:
Aussen-T/F 76 29-08-2011 15:06:01 18.7 C 35 % 2.94 C
77 29-08-2011 15:18:01 19.1 C 34 % 2.89 C
78 29-08-2011 15:30:01 20.8 C 30 % 2.61 C
79 29-08-2011 15:42:02 21.9 C 30 % 3.56 C
80 29-08-2011 15:54:02 20.6 C 30 % 2.44 C
81 29-08-2011 16:06:02 22.5 C 28 % 3.1 C
82 29-08-2011 16:18:02 20.7 C 29 % 2.05 C
83 29-08-2011 16:30:02 21.8 C 25 % 0.92 C
84 29-08-2011 16:42:02 20.2 C 27 % 0.63 C
85 29-08-2011 16:54:02 19.4 C 28 % 0.44 C
86 29-08-2011 17:06:02 20.7 C 26 % 0.53 C
87 29-08-2011 17:18:02 19.5 C 31 % 1.94 C
88 29-08-2011 17:30:02 19.5 C 32 % 2.39 C
89 29-08-2011 17:42:02 19 C 34 % 2.8 C
90 29-08-2011 17:54:01 19.5 C 33 % 2.82 C
91 29-08-2011 18:06:01 20.6 C 29 % 1.96 C
92 29-08-2011 18:18:01 22 C 26 % 1.63 C
93 29-08-2011 18:30:01 19.3 C 31 % 1.77 C
94 29-08-2011 18:42:01 19.5 C 33 % 2.82 C
95 29-08-2011 18:54:02 18.7 C 35 % 2.94 C
96 29-08-2011 19:06:02 18.1 C 36 % 2.81 C
97 29-08-2011 19:18:01 17.5 C 39 % 3.41 C
98 29-08-2011 19:30:01 16.1 C 50 % 5.69 C
99 29-08-2011 19:42:01 15.9 C 49 % 5.21 C
100 29-08-2011 19:54:01 15.9 C 49 % 5.21 C
Sensor: Nr:Datum:Temp:Feuchte:Taupunkt:
Aussen-T/F 101 29-08-2011 20:06:02 13.9 C 60 % 6.27 C
102 29-08-2011 20:18:01 13.9 C 60 % 6.27 C
103 29-08-2011 20:30:01 13.3 C 63 % 6.41 C
104 29-08-2011 20:42:02 13.3 C 63 % 6.41 C
105 29-08-2011 20:54:01 13.1 C 59 % 5.28 C
106 29-08-2011 21:06:02 13 C 63 % 6.13 C
107 29-08-2011 21:18:02 13 C 63 % 6.13 C
108 29-08-2011 21:30:02 13 C 63 % 6.13 C
109 29-08-2011 21:43:02 13.3 C 62 % 6.18 C
110 29-08-2011 21:55:02 13.7 C 58 % 5.6 C
111 29-08-2011 22:07:02 13.4 C 58 % 5.32 C
112 29-08-2011 22:19:02 13.3 C 59 % 5.47 C
113 29-08-2011 22:31:02 13.1 C 59 % 5.28 C
114 29-08-2011 22:43:02 13.4 C 56 % 4.81 C
115 29-08-2011 22:55:02 13.1 C 58 % 5.03 C
116 29-08-2011 23:07:02 12.6 C 64 % 5.98 C
117 29-08-2011 23:19:02 12.3 C 64 % 5.69 C
118 29-08-2011 23:31:02 12.1 C 64 % 5.51 C
119 29-08-2011 23:43:02 11.7 C 68 % 6 C
120 29-08-2011 23:55:02 11.5 C 69 % 6.02 C
121 30-08-2011 00:07:02 11.3 C 69 % 5.83 C
122 30-08-2011 00:19:02 11.2 C 71 % 6.14 C
123 30-08-2011 00:31:03 11 C 72 % 6.15 C
124 30-08-2011 00:43:03 10.6 C 74 % 6.17 C
125 30-08-2011 00:55:03 10.7 C 74 % 6.26 C
Sensor: Nr:Datum:Temp:Feuchte:Taupunkt:
Aussen-T/F 126 30-08-2011 01:07:03 10.3 C 75 % 6.07 C
127 30-08-2011 01:19:03 9.9 C 78 % 6.25 C
128 30-08-2011 01:31:03 9.3 C 79 % 5.85 C
129 30-08-2011 01:43:03 9 C 81 % 5.92 C
130 30-08-2011 01:55:03 9 C 82 % 6.1 C
131 30-08-2011 02:07:03 8.6 C 84 % 6.05 C
132 30-08-2011 02:19:03 8.9 C 85 % 6.52 C
133 30-08-2011 02:31:03 8.9 C 85 % 6.52 C
134 30-08-2011 02:43:03 9 C 84 % 6.45 C
135 30-08-2011 02:55:03 8.7 C 85 % 6.32 C
136 30-08-2011 03:07:03 8.5 C 85 % 6.13 C
137 30-08-2011 03:19:03 7.8 C 86 % 5.61 C
138 30-08-2011 03:31:03 8 C 86 % 5.81 C
139 30-08-2011 03:43:03 7.8 C 88 % 5.94 C
140 30-08-2011 03:55:03 8 C 88 % 6.14 C
141 30-08-2011 04:07:03 7.7 C 89 % 6 C
142 30-08-2011 04:19:03 8.1 C 88 % 6.24 C
143 30-08-2011 04:31:03 7.7 C 89 % 6 C
144 30-08-2011 04:43:04 7.6 C 89 % 5.91 C
145 30-08-2011 04:55:04 7.5 C 90 % 5.97 C
146 30-08-2011 05:07:04 7.4 C 90 % 5.87 C
147 30-08-2011 05:19:04 7.4 C 90 % 5.87 C
148 30-08-2011 05:31:04 7.1 C 90 % 5.57 C
149 30-08-2011 05:43:04 7.3 C 90 % 5.77 C
150 30-08-2011 05:55:04 6.9 C 91 % 5.54 C
Sensor: Nr:Datum:Temp:Feuchte:Taupunkt:
Aussen-T/F 151 30-08-2011 06:07:04 7 C 90 % 5.48 C
152 30-08-2011 06:19:04 7.2 C 90 % 5.67 C
153 30-08-2011 06:31:04 7 C 91 % 5.63 C
154 30-08-2011 06:43:04 6.9 C 92 % 5.69 C
155 30-08-2011 06:55:04 6.9 C 92 % 5.69 C
156 30-08-2011 07:07:04 6.9 C 92 % 5.69 C
157 30-08-2011 07:19:02 6.7 C 92 % 5.49 C
158 30-08-2011 07:31:02 7.1 C 91 % 5.73 C
159 30-08-2011 07:43:02 7.3 C 92 % 6.09 C
160 30-08-2011 07:55:02 7.3 C 92 % 6.09 C
161 30-08-2011 08:07:02 7.1 C 92 % 5.89 C
162 30-08-2011 08:19:02 7.5 C 92 % 6.29 C
163 30-08-2011 08:31:02 7.6 C 92 % 6.39 C
164 30-08-2011 08:43:02 7.7 C 92 % 6.48 C
165 30-08-2011 08:55:02 7.8 C 92 % 6.58 C
166 30-08-2011 09:07:02 8.2 C 91 % 6.82 C
167 30-08-2011 09:19:02 8.4 C 91 % 7.02 C
168 30-08-2011 09:31:01 8.9 C 91 % 7.51 C
169 30-08-2011 09:43:01 9.5 C 90 % 7.94 C
170 30-08-2011 09:55:01 10 C 89 % 8.27 C
171 30-08-2011 10:07:01 10.5 C 89 % 8.77 C
172 30-08-2011 10:19:02 10.7 C 88 % 8.8 C
173 30-08-2011 10:31:01 11.1 C 86 % 8.85 C
174 30-08-2011 10:43:01 12 C 80 % 8.66 C
175 30-08-2011 10:55:02 12.8 C 68 % 7.05 C
Sensor: Nr:Datum:Temp:Feuchte:Taupunkt:
Aussen-T/F 176 30-08-2011 11:07:01 13.4 C 63 % 6.51 C
177 30-08-2011 11:19:01 14 C 59 % 6.12 C
178 30-08-2011 11:31:01 14.3 C 55 % 5.39 C
179 30-08-2011 11:43:01 14.8 C 51 % 4.77 C
180 30-08-2011 11:55:02 16.6 C 44 % 4.31 C
181 30-08-2011 12:07:02 16.5 C 39 % 2.51 C
182 30-08-2011 12:19:02 16.5 C 47 % 5.16 C
183 30-08-2011 12:31:02 15.9 C 55 % 6.88 C
184 30-08-2011 12:43:02 16.2 C 55 % 7.16 C
185 30-08-2011 12:55:02 17.3 C 41 % 3.94 C
186 30-08-2011 13:07:02 18 C 42 % 4.91 C
187 30-08-2011 13:19:01 17.5 C 41 % 4.12 C
188 30-08-2011 13:31:02 18.2 C 36 % 2.9 C
189 30-08-2011 13:43:02 18.4 C 38 % 3.84 C
190 30-08-2011 13:55:02 21 C 32 % 3.69 C
191 30-08-2011 14:07:02 19.7 C 33 % 2.99 C
192 30-08-2011 14:19:02 18.4 C 36 % 3.08 C
193 30-08-2011 14:31:02 18.2 C 41 % 4.75 C
194 30-08-2011 14:43:03 18.1 C 40 % 4.3 C
195 30-08-2011 14:55:02 18.2 C 39 % 4.03 C
196 30-08-2011 15:07:02 18.1 C 38 % 3.57 C
197 30-08-2011 15:19:02 17.5 C 39 % 3.41 C
198 30-08-2011 15:31:02 17.4 C 40 % 3.68 C
199 30-08-2011 15:43:02 17.4 C 41 % 4.03 C
200 30-08-2011 15:55:02 17.2 C 41 % 3.85 C
Sensor: Nr:Datum:Temp:Feuchte:Taupunkt:
Aussen-T/F 201 30-08-2011 16:07:02 17 C 43 % 4.34 C
202 30-08-2011 16:19:02 16.8 C 45 % 4.81 C
203 30-08-2011 16:31:03 16.8 C 45 % 4.81 C
204 30-08-2011 16:43:03 16.7 C 42 % 3.74 C
205 30-08-2011 16:55:02 16.6 C 43 % 3.98 C
206 30-08-2011 17:07:02 16.8 C 42 % 3.83 C
207 30-08-2011 17:19:02 16.9 C 42 % 3.92 C
208 30-08-2011 17:31:02 17.1 C 43 % 4.43 C
209 30-08-2011 17:43:02 16.9 C 51 % 6.71 C
210 30-08-2011 17:55:02 16.9 C 54 % 7.54 C
211 30-08-2011 18:07:03 17 C 55 % 7.9 C
212 30-08-2011 18:19:02 21.3 C 33 % 4.39 C
213 30-08-2011 18:31:02 22.1 C 28 % 2.76 C
214 30-08-2011 18:43:02 22 C 30 % 3.64 C
215 30-08-2011 18:55:01 21 C 32 % 3.69 C
216 30-08-2011 19:07:02 21 C 32 % 3.69 C
217 30-08-2011 19:19:01 18.4 C 45 % 6.26 C
218 30-08-2011 19:31:01 15.9 C 57 % 7.4 C
219 30-08-2011 19:43:01 14.7 C 63 % 7.74 C
220 30-08-2011 19:55:01 13.9 C 67 % 7.88 C
221 30-08-2011 20:07:02 13.3 C 68 % 7.53 C
222 30-08-2011 20:19:02 12.4 C 71 % 7.3 C
223 30-08-2011 20:31:01 11.8 C 73 % 7.12 C
224 30-08-2011 20:43:01 11.6 C 73 % 6.93 C
225 30-08-2011 20:55:01 11.7 C 75 % 7.42 C
Sensor: Nr:Datum:Temp:Feuchte:Taupunkt:
Aussen-T/F 226 30-08-2011 21:07:01 11.2 C 76 % 7.13 C
227 30-08-2011 21:19:02 11 C 78 % 7.32 C
228 30-08-2011 21:32:02 10.6 C 79 % 7.11 C
229 30-08-2011 21:44:02 10.5 C 81 % 7.38 C
230 30-08-2011 21:56:02 10.1 C 81 % 6.99 C
231 30-08-2011 22:08:02 9.8 C 83 % 7.05 C
232 30-08-2011 22:20:02 9.3 C 84 % 6.74 C
233 30-08-2011 22:32:02 9 C 84 % 6.45 C
234 30-08-2011 22:44:02 8.9 C 86 % 6.69 C
235 30-08-2011 22:56:02 9 C 85 % 6.62 C
236 30-08-2011 23:08:02 9.1 C 86 % 6.89 C
237 30-08-2011 23:20:02 8.6 C 87 % 6.56 C
238 30-08-2011 23:32:02 8.5 C 87 % 6.46 C
239 30-08-2011 23:44:02 8.4 C 88 % 6.53 C
240 30-08-2011 23:56:02 8.3 C 88 % 6.43 C
241 31-08-2011 00:08:02 8.5 C 88 % 6.63 C
242 31-08-2011 00:20:02 8.2 C 88 % 6.33 C
243 31-08-2011 00:32:02 8.2 C 88 % 6.33 C
244 31-08-2011 00:44:02 7.8 C 90 % 6.27 C
245 31-08-2011 00:56:03 7.9 C 90 % 6.36 C
246 31-08-2011 01:08:03 7.8 C 90 % 6.27 C
247 31-08-2011 01:20:03 7.8 C 90 % 6.27 C
248 31-08-2011 01:32:03 7.6 C 90 % 6.07 C
249 31-08-2011 01:44:03 7.8 C 90 % 6.27 C
250 31-08-2011 01:56:03 7.4 C 90 % 5.87 C
Sensor: Nr:Datum:Temp:Feuchte:Taupunkt:
Aussen-T/F 251 31-08-2011 02:08:03 7.3 C 90 % 5.77 C
252 31-08-2011 02:20:03 7.4 C 90 % 5.87 C
253 31-08-2011 02:32:03 7.5 C 91 % 6.13 C
254 31-08-2011 02:44:03 7.5 C 91 % 6.13 C
255 31-08-2011 02:56:03 7.7 C 91 % 6.33 C
256 31-08-2011 03:08:03 7.4 C 91 % 6.03 C
257 31-08-2011 03:20:03 7.1 C 91 % 5.73 C
258 31-08-2011 03:32:03 6.7 C 91 % 5.34 C
259 31-08-2011 03:44:03 6.6 C 92 % 5.4 C
260 31-08-2011 03:56:03 6.5 C 92 % 5.3 C
261 31-08-2011 04:08:03 6.3 C 92 % 5.1 C
262 31-08-2011 04:20:03 6.3 C 92 % 5.1 C
263 31-08-2011 04:32:03 7.3 C 92 % 6.09 C
264 31-08-2011 04:44:03 7.1 C 92 % 5.89 C
265 31-08-2011 04:56:04 7.2 C 92 % 5.99 C
266 31-08-2011 05:08:04 7.1 C 92 % 5.89 C
267 31-08-2011 05:20:04 7.3 C 92 % 6.09 C
268 31-08-2011 05:32:04 7 C 92 % 5.79 C
269 31-08-2011 05:44:04 6.9 C 93 % 5.85 C
270 31-08-2011 05:56:04 6.7 C 93 % 5.65 C
271 31-08-2011 06:08:04 6.8 C 93 % 5.75 C
272 31-08-2011 06:20:04 7.1 C 92 % 5.89 C
273 31-08-2011 06:32:04 7 C 92 % 5.79 C
274 31-08-2011 06:44:04 7 C 92 % 5.79 C
275 31-08-2011 06:56:03 7.2 C 93 % 6.15 C
Sensor: Nr:Datum:Temp:Feuchte:Taupunkt:
Aussen-T/F 276 31-08-2011 07:08:02 7.2 C 93 % 6.15 C
277 31-08-2011 07:20:02 7.2 C 93 % 6.15 C
278 31-08-2011 07:32:02 7.2 C 93 % 6.15 C
279 31-08-2011 07:44:02 7.2 C 93 % 6.15 C
280 31-08-2011 07:56:02 7.4 C 93 % 6.34 C
281 31-08-2011 08:08:02 7.3 C 93 % 6.25 C
282 31-08-2011 08:20:03 7.8 C 93 % 6.74 C
283 31-08-2011 08:32:02 8 C 92 % 6.78 C
284 31-08-2011 08:44:02 8.1 C 92 % 6.88 C
285 31-08-2011 08:56:02 8.4 C 92 % 7.18 C
286 31-08-2011 09:08:01 8.5 C 92 % 7.28 C
287 31-08-2011 09:20:02 8.7 C 91 % 7.32 C
288 31-08-2011 09:32:02 8.7 C 91 % 7.32 C
289 31-08-2011 09:44:02 9 C 89 % 7.29 C
290 31-08-2011 09:56:01 9.7 C 88 % 7.81 C
291 31-08-2011 10:08:01 9.5 C 86 % 7.28 C
292 31-08-2011 10:20:01 9.3 C 85 % 6.91 C
293 31-08-2011 10:32:02 9.7 C 85 % 7.3 C
294 31-08-2011 10:44:02 10.1 C 83 % 7.35 C
295 31-08-2011 10:56:02 10.6 C 83 % 7.84 C
296 31-08-2011 11:08:02 11 C 81 % 7.87 C
297 31-08-2011 11:20:02 11.5 C 81 % 8.36 C
298 31-08-2011 11:32:02 12 C 79 % 8.48 C
299 31-08-2011 11:44:03 12.2 C 80 % 8.86 C
300 31-08-2011 11:56:02 12.7 C 76 % 8.58 C
Sensor: Nr:Datum:Temp:Feuchte:Taupunkt:
Aussen-T/F 301 31-08-2011 12:08:02 13.1 C 74 % 8.58 C
302 31-08-2011 12:20:02 13.7 C 68 % 7.91 C
303 31-08-2011 12:32:02 14 C 65 % 7.53 C
304 31-08-2011 12:44:02 14.6 C 57 % 6.19 C
305 31-08-2011 12:56:01 15 C 51 % 4.96 C
306 31-08-2011 13:08:01 15.8 C 49 % 5.12 C
307 31-08-2011 13:20:01 16.6 C 46 % 4.95 C
308 31-08-2011 13:32:01 17.1 C 42 % 4.1 C
309 31-08-2011 13:44:01 17.7 C 40 % 3.95 C
310 31-08-2011 13:56:01 20.1 C 34 % 3.77 C
311 31-08-2011 14:08:01 21 C 28 % 1.81 C
312 31-08-2011 14:20:02 22.7 C 26 % 2.23 C
313 31-08-2011 14:32:01 20.7 C 30 % 2.52 C
314 31-08-2011 14:44:01 21.9 C 25 % 1 C
315 31-08-2011 14:56:03 24.6 C 20 % 0.17 C
316 31-08-2011 15:08:02 26.2 C 20 % 1.49 C
317 31-08-2011 15:20:02 26.9 C 20 % 2.06 C
318 31-08-2011 15:32:02 25.7 C 20 % 1.08 C
319 31-08-2011 15:44:02 27.5 C 20 % 2.56 C
320 31-08-2011 15:56:02 26.9 C 20 % 2.06 C
321 31-08-2011 16:08:02 25.5 C 22 % 2.24 C
322 31-08-2011 16:20:02 27.2 C 21 % 3 C
323 31-08-2011 16:32:02 27 C 20 % 2.15 C
324 31-08-2011 16:44:02 25.2 C 20 % 0.67 C
325 31-08-2011 16:56:03 25.5 C 20 % 0.91 C
Sensor: Nr:Datum:Temp:Feuchte:Taupunkt:
Aussen-T/F 326 31-08-2011 17:08:03 24 C 24 % 2.21 C
327 31-08-2011 17:20:02 21.8 C 39 % 7.24 C
328 31-08-2011 17:32:03 22.8 C 34 % 6.13 C
329 31-08-2011 17:44:03 24.9 C 23 % 2.36 C
330 31-08-2011 17:56:02 24.6 C 23 % 2.11 C
331 31-08-2011 18:08:02 22.7 C 35 % 6.46 C
332 31-08-2011 18:20:02 22.2 C 31 % 4.28 C
333 31-08-2011 18:32:02 21.2 C 33 % 4.3 C
334 31-08-2011 18:44:02 22.4 C 32 % 4.91 C
335 31-08-2011 18:56:02 21.5 C 35 % 5.41 C
336 31-08-2011 19:08:03 20 C 45 % 7.72 C
337 31-08-2011 19:20:02 18.2 C 53 % 8.47 C
338 31-08-2011 19:32:02 16.4 C 59 % 8.38 C
339 31-08-2011 19:44:02 15.6 C 62 % 8.35 C
340 31-08-2011 19:56:01 15 C 62 % 7.79 C
341 31-08-2011 20:08:02 14.7 C 64 % 7.97 C
342 31-08-2011 20:20:01 14.4 C 63 % 7.45 C
343 31-08-2011 20:32:01 14 C 64 % 7.31 C
344 31-08-2011 20:44:01 13.6 C 66 % 7.38 C
345 31-08-2011 20:56:01 13.3 C 68 % 7.53 C
346 31-08-2011 21:08:02 13.4 C 68 % 7.62 C
347 31-08-2011 21:20:01 13.2 C 68 % 7.43 C
348 31-08-2011 21:32:02 12.5 C 70 % 7.18 C
349 31-08-2011 21:44:02 12.5 C 70 % 7.18 C
350 31-08-2011 21:57:48 12.7 C 70 % 7.38 C
Sensor: Nr:Datum:Temp:Feuchte:Taupunkt:
Aussen-T/F 351 31-08-2011 22:09:48 12.4 C 73 % 7.7 C
352 31-08-2011 22:21:48 12 C 73 % 7.32 C
353 31-08-2011 22:33:48 11.8 C 76 % 7.71 C
354 31-08-2011 22:45:48 11.6 C 78 % 7.9 C
355 31-08-2011 22:57:48 11.3 C 79 % 7.8 C
356 31-08-2011 23:09:48 11 C 80 % 7.69 C
357 31-08-2011 23:21:48 10.7 C 81 % 7.58 C
358 31-08-2011 23:33:48 10.5 C 82 % 7.56 C
359 31-08-2011 23:45:48 10.4 C 83 % 7.64 C
360 31-08-2011 23:57:48 10.4 C 83 % 7.64 C
361 01-09-2011 00:09:49 10.2 C 83 % 7.45 C
362 01-09-2011 00:21:49 9.8 C 85 % 7.4 C
363 01-09-2011 00:33:49 9.4 C 84 % 6.84 C
364 01-09-2011 00:45:49 9.2 C 84 % 6.64 C
365 01-09-2011 00:57:49 9.3 C 85 % 6.91 C
366 01-09-2011 01:09:49 9.2 C 86 % 6.98 C
367 01-09-2011 01:21:49 8.8 C 87 % 6.76 C
368 01-09-2011 01:33:49 8.8 C 87 % 6.76 C
369 01-09-2011 01:45:49 8.7 C 88 % 6.83 C
370 01-09-2011 01:57:49 8.6 C 88 % 6.73 C
371 01-09-2011 02:09:49 8.7 C 88 % 6.83 C
372 01-09-2011 02:21:49 8.5 C 88 % 6.63 C
373 01-09-2011 02:33:49 8.4 C 88 % 6.53 C
374 01-09-2011 02:45:49 8.4 C 88 % 6.53 C
375 01-09-2011 02:57:49 8.3 C 89 % 6.6 C
Sensor: Nr:Datum:Temp:Feuchte:Taupunkt:
Aussen-T/F 376 01-09-2011 03:09:49 8.4 C 89 % 6.7 C
377 01-09-2011 03:21:49 8.3 C 89 % 6.6 C
378 01-09-2011 03:33:49 8 C 89 % 6.3 C
379 01-09-2011 03:45:49 7.9 C 90 % 6.36 C
380 01-09-2011 03:57:49 7.7 C 90 % 6.17 C
381 01-09-2011 04:09:49 7.9 C 90 % 6.36 C
382 01-09-2011 04:21:50 7.9 C 90 % 6.36 C
383 01-09-2011 04:33:50 7.8 C 90 % 6.27 C
384 01-09-2011 04:45:50 7.6 C 90 % 6.07 C
385 01-09-2011 04:57:50 7.8 C 90 % 6.27 C
386 01-09-2011 05:09:50 7.5 C 90 % 5.97 C
387 01-09-2011 05:21:50 7.7 C 90 % 6.17 C
388 01-09-2011 05:33:50 7.4 C 90 % 5.87 C
389 01-09-2011 05:45:50 7.9 C 91 % 6.52 C
390 01-09-2011 05:57:50 7.4 C 91 % 6.03 C
391 01-09-2011 06:09:50 7.3 C 91 % 5.93 C
392 01-09-2011 06:21:50 7.2 C 91 % 5.83 C
393 01-09-2011 06:33:50 7.2 C 91 % 5.83 C
394 01-09-2011 06:45:50 7.2 C 91 % 5.83 C
395 01-09-2011 06:57:50 7.2 C 91 % 5.83 C
396 01-09-2011 07:09:04 7.6 C 91 % 6.23 C
397 01-09-2011 07:21:03 7.5 C 91 % 6.13 C
398 01-09-2011 07:33:02 7.9 C 92 % 6.68 C
399 01-09-2011 07:45:02 8.4 C 91 % 7.02 C
400 01-09-2011 07:57:02 8.7 C 91 % 7.32 C
Sensor: Nr:Datum:Temp:Feuchte:Taupunkt:
Aussen-T/F 401 01-09-2011 08:09:01 9 C 90 % 7.45 C
402 01-09-2011 08:21:02 9.1 C 90 % 7.55 C
403 01-09-2011 08:33:02 9.4 C 90 % 7.85 C
404 01-09-2011 08:45:01 9.3 C 90 % 7.75 C
405 01-09-2011 08:57:01 9.7 C 90 % 8.14 C
406 01-09-2011 09:09:02 9.7 C 89 % 7.98 C
407 01-09-2011 09:21:01 10.1 C 88 % 8.21 C
408 01-09-2011 09:33:02 10.2 C 87 % 8.14 C
409 01-09-2011 09:45:02 10.4 C 86 % 8.16 C
410 01-09-2011 09:57:02 10.7 C 86 % 8.46 C
411 01-09-2011 10:09:02 10.9 C 85 % 8.48 C
412 01-09-2011 10:21:02 11.2 C 84 % 8.6 C
413 01-09-2011 10:33:02 11.4 C 84 % 8.8 C
414 01-09-2011 10:45:02 11.6 C 85 % 9.17 C
415 01-09-2011 10:57:02 12 C 85 % 9.56 C
416 01-09-2011 11:09:02 12.3 C 85 % 9.85 C
417 01-09-2011 11:21:02 12.7 C 85 % 10.25 C
418 01-09-2011 11:33:02 13.1 C 84 % 10.46 C
419 01-09-2011 11:45:02 14.2 C 82 % 11.17 C
420 01-09-2011 11:57:02 14.8 C 75 % 10.42 C
421 01-09-2011 12:09:03 15.4 C 73 % 10.59 C
422 01-09-2011 12:21:02 16 C 69 % 10.32 C
423 01-09-2011 12:33:02 16.4 C 65 % 9.81 C
424 01-09-2011 12:45:02 16.8 C 61 % 9.24 C
425 01-09-2011 12:57:02 17.3 C 59 % 9.22 C
Sensor: Nr:Datum:Temp:Feuchte:Taupunkt:
Aussen-T/F 426 01-09-2011 13:09:02 17.9 C 54 % 8.47 C
427 01-09-2011 13:21:01 18.6 C 46 % 6.77 C
428 01-09-2011 13:33:02 19.1 C 44 % 6.57 C
429 01-09-2011 13:45:02 19.6 C 42 % 6.35 C
430 01-09-2011 13:57:02 21.8 C 35 % 5.67 C
431 01-09-2011 14:09:02 22.5 C 35 % 6.29 C
432 01-09-2011 14:21:01 23.1 C 31 % 5.06 C
433 01-09-2011 14:33:02 21.6 C 35 % 5.5 C
434 01-09-2011 14:45:02 22.9 C 31 % 4.89 C
435 01-09-2011 14:57:02 25.6 C 26 % 4.69 C
436 01-09-2011 15:09:02 28.3 C 20 % 3.21 C
437 01-09-2011 15:21:01 29.4 C 21 % 4.81 C
438 01-09-2011 15:33:02 27.7 C 20 % 2.72 C
439 01-09-2011 15:45:01 29 C 20 % 3.79 C
440 01-09-2011 15:57:01 28.9 C 22 % 5.06 C
441 01-09-2011 16:09:02 30.4 C 22 % 6.31 C
442 01-09-2011 16:21:02 29.7 C 20 % 4.36 C
443 01-09-2011 16:33:02 29.4 C 20 % 4.11 C
444 01-09-2011 16:45:02 28.7 C 20 % 3.54 C
445 01-09-2011 16:57:02 28.7 C 20 % 3.54 C
446 01-09-2011 17:09:02 30.4 C 22 % 6.31 C
447 01-09-2011 17:21:02 30.3 C 20 % 4.85 C
448 01-09-2011 17:33:02 28.7 C 20 % 3.54 C
449 01-09-2011 17:45:03 29.6 C 20 % 4.28 C
450 01-09-2011 17:57:03 28.5 C 20 % 3.38 C
Sensor: Nr:Datum:Temp:Feuchte:Taupunkt:
Aussen-T/F 451 01-09-2011 18:09:02 28.3 C 21 % 3.9 C
452 01-09-2011 18:21:02 27.7 C 28 % 7.55 C
453 01-09-2011 18:33:02 27.4 C 30 % 8.3 C
454 01-09-2011 18:45:02 26.6 C 31 % 8.09 C
455 01-09-2011 18:57:02 26.6 C 31 % 8.09 C
456 01-09-2011 19:09:02 26.6 C 31 % 8.09 C
457 01-09-2011 19:21:01 26.6 C 31 % 8.09 C
458 01-09-2011 19:33:02 19.7 C 52 % 9.58 C
459 01-09-2011 19:45:02 19 C 53 % 9.21 C
460 01-09-2011 19:57:02 18.7 C 54 % 9.21 C
461 01-09-2011 20:09:02 18.7 C 54 % 9.21 C
462 01-09-2011 20:21:02 18.7 C 54 % 9.21 C
463 01-09-2011 20:33:02 18.7 C 54 % 9.21 C
464 01-09-2011 20:45:02 16.4 C 61 % 8.87 C
465 01-09-2011 20:57:02 15.7 C 62 % 8.45 C
466 01-09-2011 21:09:02 15.5 C 64 % 8.73 C
467 01-09-2011 21:21:02 15.3 C 68 % 9.43 C
468 01-09-2011 21:34:04 14.5 C 70 % 9.1 C
469 01-09-2011 21:46:04 14.2 C 72 % 9.23 C
470 01-09-2011 21:58:04 13.9 C 75 % 9.55 C
471 01-09-2011 22:10:04 13.5 C 75 % 9.16 C
472 01-09-2011 22:22:04 13.1 C 76 % 8.97 C
473 01-09-2011 22:34:04 13.2 C 77 % 9.26 C
474 01-09-2011 22:46:04 13 C 79 % 9.45 C
475 01-09-2011 22:58:04 12.9 C 80 % 9.54 C
Sensor: Nr:Datum:Temp:Feuchte:Taupunkt:
Aussen-T/F 476 01-09-2011 23:10:04 13 C 80 % 9.63 C
477 01-09-2011 23:22:04 12.9 C 81 % 9.72 C
478 01-09-2011 23:34:04 12.6 C 81 % 9.43 C
479 01-09-2011 23:46:04 12.4 C 81 % 9.23 C
480 01-09-2011 23:58:04 12.1 C 82 % 9.12 C
481 02-09-2011 00:10:04 12.1 C 83 % 9.3 C
482 02-09-2011 00:22:04 11.8 C 84 % 9.19 C
483 02-09-2011 00:34:05 11.7 C 84 % 9.09 C
484 02-09-2011 00:46:05 11.8 C 84 % 9.19 C
485 02-09-2011 00:58:05 11.8 C 85 % 9.36 C
486 02-09-2011 01:10:05 11.5 C 85 % 9.07 C
487 02-09-2011 01:22:05 11.5 C 85 % 9.07 C
488 02-09-2011 01:34:05 11.3 C 85 % 8.87 C
489 02-09-2011 01:46:05 11.4 C 86 % 9.14 C
490 02-09-2011 01:58:05 11.1 C 86 % 8.85 C
491 02-09-2011 02:10:05 10.9 C 86 % 8.65 C
492 02-09-2011 02:22:05 10.9 C 86 % 8.65 C
493 02-09-2011 02:34:05 10.7 C 86 % 8.46 C
494 02-09-2011 02:46:05 10.7 C 86 % 8.46 C
495 02-09-2011 02:58:05 10.8 C 86 % 8.56 C
496 02-09-2011 03:10:05 10.8 C 87 % 8.73 C
497 02-09-2011 03:22:05 10.9 C 87 % 8.82 C
498 02-09-2011 03:34:05 11.1 C 87 % 9.02 C
499 02-09-2011 03:46:05 11.3 C 87 % 9.22 C
500 02-09-2011 03:58:05 11.5 C 88 % 9.58 C
Sensor: Nr:Datum:Temp:Feuchte:Taupunkt:
Aussen-T/F 501 02-09-2011 04:10:05 11.5 C 88 % 9.58 C
502 02-09-2011 04:22:05 11.9 C 88 % 9.98 C
503 02-09-2011 04:34:05 11.9 C 88 % 9.98 C
504 02-09-2011 04:46:06 11.8 C 88 % 9.88 C
505 02-09-2011 04:58:06 11.8 C 88 % 9.88 C
506 02-09-2011 05:10:06 11.5 C 87 % 9.41 C
507 02-09-2011 05:22:06 11.3 C 87 % 9.22 C
508 02-09-2011 05:34:06 11.5 C 88 % 9.58 C
509 02-09-2011 05:46:06 11.7 C 88 % 9.78 C
510 02-09-2011 05:58:06 11.6 C 88 % 9.68 C
511 02-09-2011 06:10:06 11.6 C 88 % 9.68 C
512 02-09-2011 06:22:06 11.9 C 88 % 9.98 C
513 02-09-2011 06:34:06 12.1 C 88 % 10.17 C
514 02-09-2011 06:46:06 12.2 C 87 % 10.1 C
515 02-09-2011 06:58:06 12.2 C 87 % 10.1 C
516 02-09-2011 07:10:06 12.3 C 87 % 10.2 C
517 02-09-2011 07:22:06 12.5 C 87 % 10.4 C
518 02-09-2011 07:34:04 12.5 C 87 % 10.4 C
519 02-09-2011 07:46:02 12.5 C 87 % 10.4 C
520 02-09-2011 07:58:02 12.7 C 87 % 10.59 C
521 02-09-2011 08:10:02 12.8 C 87 % 10.69 C
522 02-09-2011 08:22:02 13.1 C 87 % 10.99 C
523 02-09-2011 08:34:02 13.1 C 86 % 10.81 C
524 02-09-2011 08:46:01 13.3 C 86 % 11.01 C
525 02-09-2011 08:58:01 13.3 C 86 % 11.01 C
Sensor: Nr:Datum:Temp:Feuchte:Taupunkt:
Aussen-T/F 526 02-09-2011 09:10:02 13.8 C 86 % 11.5 C
527 02-09-2011 09:22:02 14.4 C 85 % 11.91 C
528 02-09-2011 09:34:01 14.8 C 82 % 11.76 C
529 02-09-2011 09:46:02 14.7 C 78 % 10.91 C
530 02-09-2011 09:58:02 15 C 77 % 11 C
531 02-09-2011 10:10:01 15.1 C 75 % 10.71 C
532 02-09-2011 10:22:02 15.2 C 75 % 10.8 C
533 02-09-2011 10:34:01 15.6 C 76 % 11.39 C
534 02-09-2011 10:46:02 15.6 C 76 % 11.39 C
535 02-09-2011 10:58:02 15.6 C 76 % 11.39 C
536 02-09-2011 11:10:01 16.2 C 71 % 10.94 C
537 02-09-2011 11:22:02 16.5 C 69 % 10.8 C
538 02-09-2011 11:34:01 16.4 C 70 % 10.92 C
539 02-09-2011 11:46:01 17 C 68 % 11.06 C
540 02-09-2011 11:58:01 17.9 C 65 % 11.23 C
541 02-09-2011 12:10:01 19 C 59 % 10.81 C
542 02-09-2011 12:22:02 19.5 C 58 % 11.02 C
543 02-09-2011 12:34:01 20.4 C 56 % 11.33 C
544 02-09-2011 12:46:03 21 C 54 % 11.34 C
545 02-09-2011 12:58:03 20.5 C 55 % 11.16 C
546 02-09-2011 13:10:02 20 C 56 % 10.96 C
547 02-09-2011 13:22:02 21.7 C 52 % 11.42 C
548 02-09-2011 13:34:02 22.4 C 49 % 11.17 C
549 02-09-2011 13:46:02 22.2 C 50 % 11.29 C
550 02-09-2011 13:58:02 23.4 C 49 % 12.08 C
Sensor: Nr:Datum:Temp:Feuchte:Taupunkt:
Aussen-T/F 551 02-09-2011 14:10:02 25.2 C 44 % 12.09 C
552 02-09-2011 14:22:02 24.4 C 43 % 11.02 C
553 02-09-2011 14:34:01 23.2 C 47 % 11.27 C
554 02-09-2011 14:46:02 24.8 C 45 % 12.06 C
555 02-09-2011 14:58:02 28.8 C 36 % 12.25 C
556 02-09-2011 15:10:01 31 C 31 % 11.89 C
557 02-09-2011 15:22:01 31.3 C 30 % 11.65 C
558 02-09-2011 15:34:02 30.9 C 28 % 10.27 C
559 02-09-2011 15:46:02 31.7 C 26 % 9.85 C
560 02-09-2011 15:58:02 32 C 22 % 7.63 C
561 02-09-2011 16:10:01 32 C 23 % 8.28 C
562 02-09-2011 16:22:02 29.5 C 31 % 10.6 C
563 02-09-2011 16:34:02 27.6 C 45 % 14.6 C
564 02-09-2011 16:46:02 31 C 33 % 12.84 C
565 02-09-2011 16:58:02 31.4 C 28 % 10.7 C
566 02-09-2011 17:10:01 29.4 C 38 % 13.6 C
567 02-09-2011 17:22:02 25.5 C 46 % 13.03 C
568 02-09-2011 17:34:02 24.3 C 53 % 14.11 C
569 02-09-2011 17:46:02 24.1 C 53 % 13.93 C
570 02-09-2011 17:58:03 23.8 C 57 % 14.77 C
571 02-09-2011 18:10:02 23.5 C 56 % 14.22 C
572 02-09-2011 18:22:02 23 C 58 % 14.29 C
573 02-09-2011 18:34:02 22.5 C 60 % 14.35 C
574 02-09-2011 18:46:01 22 C 62 % 14.39 C
575 02-09-2011 18:58:01 22 C 61 % 14.14 C
Sensor: Nr:Datum:Temp:Feuchte:Taupunkt:
Aussen-T/F 576 02-09-2011 19:10:02 21.9 C 62 % 14.29 C
577 02-09-2011 19:22:01 21 C 69 % 15.1 C
578 02-09-2011 19:34:02 21 C 71 % 15.54 C
579 02-09-2011 19:46:02 20.8 C 73 % 15.78 C
580 02-09-2011 19:58:02 20.3 C 73 % 15.3 C
581 02-09-2011 20:10:02 19.6 C 76 % 15.26 C
582 02-09-2011 20:22:01 19.4 C 77 % 15.27 C
583 02-09-2011 20:34:02 19.3 C 75 % 14.76 C
584 02-09-2011 20:46:02 19.3 C 73 % 14.34 C
585 02-09-2011 20:58:02 18.9 C 75 % 14.37 C
586 02-09-2011 21:10:02 18.5 C 76 % 14.19 C
587 02-09-2011 21:22:02 18.2 C 77 % 14.1 C
588 02-09-2011 21:34:02 17.7 C 79 % 14.01 C
589 02-09-2011 21:46:02 17.6 C 80 % 14.11 C
590 02-09-2011 21:58:02 17.6 C 82 % 14.49 C
591 02-09-2011 22:10:01 17.3 C 82 % 14.2 C
592 02-09-2011 22:22:01 17 C 82 % 13.91 C
593 02-09-2011 22:34:02 17.3 C 83 % 14.39 C
594 02-09-2011 22:46:03 17.1 C 83 % 14.19 C
595 02-09-2011 22:58:03 16.8 C 84 % 14.08 C
596 02-09-2011 23:10:02 16.6 C 84 % 13.89 C
597 02-09-2011 23:22:02 16.5 C 84 % 13.79 C
598 02-09-2011 23:34:02 16.1 C 84 % 13.4 C
599 02-09-2011 23:46:02 16 C 84 % 13.3 C
600 02-09-2011 23:58:02 16 C 84 % 13.3 C
Sensor: Nr:Datum:Temp:Feuchte:Taupunkt:
Aussen-T/F 601 03-09-2011 00:10:02 15.8 C 85 % 13.28 C
602 03-09-2011 00:22:02 15.8 C 86 % 13.46 C
603 03-09-2011 00:34:01 15.6 C 86 % 13.27 C
604 03-09-2011 00:46:02 15.5 C 86 % 13.17 C
605 03-09-2011 00:58:02 15.5 C 86 % 13.17 C
606 03-09-2011 01:10:01 15.6 C 87 % 13.45 C
607 03-09-2011 01:22:02 15.3 C 87 % 13.15 C
608 03-09-2011 01:34:02 15.2 C 87 % 13.05 C
609 03-09-2011 01:46:02 15.2 C 87 % 13.05 C
610 03-09-2011 01:58:03 15.2 C 87 % 13.05 C
611 03-09-2011 02:10:02 15.1 C 87 % 12.95 C
612 03-09-2011 02:22:02 15 C 87 % 12.86 C
613 03-09-2011 02:34:03 15.1 C 88 % 13.13 C
614 03-09-2011 02:47:03 15 C 88 % 13.03 C
615 03-09-2011 02:59:03 14.9 C 89 % 13.1 C
616 03-09-2011 03:11:04 14.8 C 89 % 13.01 C
617 03-09-2011 03:23:04 14.8 C 89 % 13.01 C
618 03-09-2011 03:35:02 14.7 C 89 % 12.91 C
619 03-09-2011 03:47:02 14.7 C 89 % 12.91 C
620 03-09-2011 03:59:02 14.6 C 89 % 12.81 C
621 03-09-2011 04:11:02 14.7 C 89 % 12.91 C
622 03-09-2011 04:23:02 14.5 C 89 % 12.71 C
623 03-09-2011 04:35:02 14.5 C 89 % 12.71 C
624 03-09-2011 04:47:02 14.7 C 90 % 13.08 C
625 03-09-2011 04:59:02 14.1 C 89 % 12.32 C
Sensor: Nr:Datum:Temp:Feuchte:Taupunkt:
Aussen-T/F 626 03-09-2011 05:11:01 14.3 C 89 % 12.51 C
627 03-09-2011 05:23:02 14.3 C 89 % 12.51 C
628 03-09-2011 05:35:02 14.1 C 89 % 12.32 C
629 03-09-2011 05:47:02 14.4 C 90 % 12.78 C
630 03-09-2011 05:59:02 14 C 89 % 12.22 C
631 03-09-2011 06:11:02 14.4 C 90 % 12.78 C
632 03-09-2011 06:23:02 13.8 C 90 % 12.19 C
633 03-09-2011 06:35:03 13.7 C 90 % 12.09 C
634 03-09-2011 06:47:02 14 C 90 % 12.39 C
635 03-09-2011 06:59:02 14.1 C 90 % 12.49 C
636 03-09-2011 07:11:02 14.5 C 90 % 12.88 C
637 03-09-2011 07:23:01 14.5 C 90 % 12.88 C
638 03-09-2011 07:35:02 14.8 C 90 % 13.18 C
639 03-09-2011 07:47:02 14.8 C 90 % 13.18 C
640 03-09-2011 07:59:02 14.8 C 90 % 13.18 C
641 03-09-2011 08:11:02 14.9 C 90 % 13.28 C
642 03-09-2011 08:23:02 15.1 C 90 % 13.47 C
643 03-09-2011 08:35:02 15.4 C 90 % 13.77 C
644 03-09-2011 08:47:02 15.4 C 90 % 13.77 C
645 03-09-2011 08:59:02 15.5 C 90 % 13.87 C
646 03-09-2011 09:11:01 15.7 C 89 % 13.89 C
647 03-09-2011 09:23:02 15.4 C 89 % 13.6 C
648 03-09-2011 09:35:01 15.5 C 89 % 13.7 C
649 03-09-2011 09:47:03 15.9 C 89 % 14.09 C
650 03-09-2011 09:59:03 16 C 88 % 14.01 C
Sensor: Nr:Datum:Temp:Feuchte:Taupunkt:
Aussen-T/F 651 03-09-2011 10:11:02 16.6 C 89 % 14.78 C
652 03-09-2011 10:23:02 17 C 88 % 15 C
653 03-09-2011 10:35:03 17.4 C 89 % 15.57 C
654 03-09-2011 10:47:02 17.8 C 89 % 15.96 C
655 03-09-2011 10:59:03 18.2 C 88 % 16.18 C
656 03-09-2011 11:11:01 18.6 C 88 % 16.57 C
657 03-09-2011 11:23:02 19 C 87 % 16.79 C
658 03-09-2011 11:35:01 19.4 C 88 % 17.36 C
659 03-09-2011 11:47:02 19.8 C 88 % 17.75 C
660 03-09-2011 11:59:03 20.4 C 87 % 18.16 C
661 03-09-2011 12:11:02 21.3 C 86 % 18.86 C
662 03-09-2011 12:23:02 22.2 C 84 % 19.37 C
663 03-09-2011 12:35:03 23.3 C 80 % 19.65 C
664 03-09-2011 12:47:02 24.6 C 68 % 18.3 C
665 03-09-2011 12:59:02 25.4 C 56 % 15.99 C
666 03-09-2011 13:11:02 26.4 C 52 % 15.75 C
667 03-09-2011 13:23:02 26.3 C 49 % 14.74 C
668 03-09-2011 13:35:02 25.4 C 59 % 16.81 C
669 03-09-2011 13:47:02 26.2 C 51 % 15.27 C
670 03-09-2011 13:59:02 28.1 C 46 % 15.39 C
671 03-09-2011 14:11:02 28 C 49 % 16.29 C
672 03-09-2011 14:23:02 28.7 C 39 % 13.38 C
673 03-09-2011 14:35:02 27.5 C 42 % 13.44 C
674 03-09-2011 14:47:02 29.1 C 41 % 14.51 C
675 03-09-2011 14:59:02 32.1 C 30 % 12.34 C
Sensor: Nr:Datum:Temp:Feuchte:Taupunkt:
Aussen-T/F 676 03-09-2011 15:11:02 32.5 C 28 % 11.64 C
677 03-09-2011 15:23:02 31.7 C 28 % 10.96 C
678 03-09-2011 15:35:02 32.8 C 25 % 10.19 C
679 03-09-2011 15:47:02 32.4 C 27 % 11 C
680 03-09-2011 15:59:02 31.9 C 25 % 9.43 C
681 03-09-2011 16:11:02 33 C 21 % 7.77 C
682 03-09-2011 16:23:02 31.9 C 30 % 12.17 C
683 03-09-2011 16:35:02 31.7 C 28 % 10.96 C
684 03-09-2011 16:47:02 30.4 C 35 % 13.22 C
685 03-09-2011 16:59:02 31.7 C 28 % 10.96 C
686 03-09-2011 17:11:01 31.5 C 29 % 11.31 C
687 03-09-2011 17:23:02 31.9 C 26 % 10.02 C
688 03-09-2011 17:35:01 32.3 C 26 % 10.35 C
689 03-09-2011 17:47:03 31.3 C 31 % 12.15 C
690 03-09-2011 17:59:03 31.9 C 31 % 12.67 C
691 03-09-2011 18:11:02 31.6 C 32 % 12.89 C
692 03-09-2011 18:23:03 30.8 C 35 % 13.57 C
693 03-09-2011 18:35:02 30 C 39 % 14.53 C
694 03-09-2011 18:47:01 28 C 45 % 14.96 C
695 03-09-2011 18:59:01 28.4 C 43 % 14.62 C
696 03-09-2011 19:11:01 26.6 C 47 % 14.36 C
697 03-09-2011 19:23:02 24.6 C 55 % 14.96 C
698 03-09-2011 19:35:01 23.9 C 58 % 15.14 C
699 03-09-2011 19:47:02 23.2 C 60 % 15.01 C
700 03-09-2011 19:59:02 22.6 C 61 % 14.7 C
Sensor: Nr:Datum:Temp:Feuchte:Taupunkt:
Aussen-T/F 701 03-09-2011 20:11:01 22.3 C 62 % 14.67 C
702 03-09-2011 20:23:02 21.9 C 63 % 14.54 C
703 03-09-2011 20:35:02 21.6 C 63 % 14.26 C
704 03-09-2011 20:47:02 21.7 C 63 % 14.35 C
705 03-09-2011 20:59:02 21.4 C 63 % 14.07 C
706 03-09-2011 21:11:02 21.4 C 63 % 14.07 C
707 03-09-2011 21:23:02 21 C 64 % 13.93 C
708 03-09-2011 21:35:03 20.9 C 65 % 14.08 C
709 03-09-2011 21:47:03 20.9 C 64 % 13.84 C
710 03-09-2011 21:59:03 20.9 C 64 % 13.84 C
711 03-09-2011 22:11:02 20.7 C 64 % 13.65 C
712 03-09-2011 22:23:02 20.6 C 65 % 13.79 C
713 03-09-2011 22:35:03 20.4 C 67 % 14.07 C
714 03-09-2011 22:48:03 20.3 C 67 % 13.97 C
715 03-09-2011 23:00:03 19.7 C 70 % 14.08 C
716 03-09-2011 23:12:03 19.7 C 71 % 14.3 C
717 03-09-2011 23:24:03 19.4 C 72 % 14.22 C
718 03-09-2011 23:36:03 19 C 73 % 14.05 C
719 03-09-2011 23:48:04 18.8 C 75 % 14.28 C
720 04-09-2011 00:00:04 19.1 C 75 % 14.57 C
721 04-09-2011 00:12:04 19.4 C 73 % 14.44 C
722 04-09-2011 00:24:04 19.2 C 73 % 14.25 C
723 04-09-2011 00:36:04 19.1 C 74 % 14.36 C
724 04-09-2011 00:48:04 19 C 75 % 14.47 C
725 04-09-2011 01:00:04 19.1 C 77 % 14.97 C
Sensor: Nr:Datum:Temp:Feuchte:Taupunkt:
Aussen-T/F 726 04-09-2011 01:12:04 20.7 C 67 % 14.36 C
727 04-09-2011 01:24:04 20.2 C 69 % 14.33 C
728 04-09-2011 01:36:04 20 C 71 % 14.58 C
729 04-09-2011 01:48:04 19.8 C 74 % 15.03 C
730 04-09-2011 02:00:04 19.6 C 76 % 15.26 C
731 04-09-2011 02:12:04 19.6 C 77 % 15.46 C
732 04-09-2011 02:24:04 19.5 C 77 % 15.36 C
733 04-09-2011 02:36:05 19.3 C 79 % 15.57 C
734 04-09-2011 02:48:05 19.3 C 82 % 16.15 C
735 04-09-2011 03:00:05 19.3 C 83 % 16.34 C
736 04-09-2011 03:12:05 19.1 C 84 % 16.33 C
737 04-09-2011 03:24:05 19.2 C 84 % 16.43 C
738 04-09-2011 03:36:05 19.2 C 84 % 16.43 C
739 04-09-2011 03:48:05 19.2 C 85 % 16.62 C
740 04-09-2011 04:00:05 19.3 C 84 % 16.53 C
741 04-09-2011 04:12:05 19.3 C 84 % 16.53 C
742 04-09-2011 04:24:05 19.3 C 84 % 16.53 C
743 04-09-2011 04:36:05 19.4 C 84 % 16.63 C
744 04-09-2011 04:48:05 19.4 C 83 % 16.44 C
745 04-09-2011 05:00:05 19.3 C 83 % 16.34 C
746 04-09-2011 05:12:05 19.2 C 83 % 16.24 C
747 04-09-2011 05:24:05 19.3 C 83 % 16.34 C
748 04-09-2011 05:36:05 19.3 C 82 % 16.15 C
749 04-09-2011 05:48:05 19.3 C 82 % 16.15 C
750 04-09-2011 06:00:05 19.3 C 82 % 16.15 C
Sensor: Nr:Datum:Temp:Feuchte:Taupunkt:
Aussen-T/F 751 04-09-2011 06:12:05 19.3 C 81 % 15.96 C
752 04-09-2011 06:24:05 19.2 C 81 % 15.86 C
753 04-09-2011 06:36:05 19.2 C 81 % 15.86 C
754 04-09-2011 06:48:05 19.3 C 81 % 15.96 C
755 04-09-2011 07:00:05 19.4 C 81 % 16.06 C
756 04-09-2011 07:12:06 19.7 C 79 % 15.96 C
757 04-09-2011 07:24:06 19.8 C 76 % 15.45 C
758 04-09-2011 07:36:06 20.3 C 74 % 15.51 C
759 04-09-2011 07:48:06 20.4 C 73 % 15.4 C
760 04-09-2011 08:00:06 20.5 C 73 % 15.5 C
761 04-09-2011 08:12:03 20.6 C 72 % 15.38 C
762 04-09-2011 08:24:03 20.6 C 73 % 15.59 C
763 04-09-2011 08:36:03 20.5 C 74 % 15.71 C
764 04-09-2011 08:48:02 20.8 C 73 % 15.78 C
765 04-09-2011 09:00:02 21.2 C 70 % 15.51 C
766 04-09-2011 09:12:03 21.6 C 69 % 15.67 C
767 04-09-2011 09:24:02 21.8 C 68 % 15.63 C
768 04-09-2011 09:36:02 22.1 C 68 % 15.92 C
769 04-09-2011 09:48:01 22.1 C 68 % 15.92 C
770 04-09-2011 10:00:01 22.1 C 67 % 15.69 C
771 04-09-2011 10:12:02 22.5 C 67 % 16.07 C
772 04-09-2011 10:24:01 23.2 C 64 % 16.01 C
773 04-09-2011 10:36:02 23.3 C 62 % 15.61 C
774 04-09-2011 10:48:02 23.5 C 62 % 15.8 C
775 04-09-2011 11:00:02 23.5 C 63 % 16.05 C
Sensor: Nr:Datum:Temp:Feuchte:Taupunkt:
Aussen-T/F 776 04-09-2011 11:12:02 23.9 C 59 % 15.4 C
777 04-09-2011 11:24:02 24.4 C 55 % 14.78 C
778 04-09-2011 11:36:02 24.4 C 54 % 14.49 C
779 04-09-2011 11:48:02 24.5 C 53 % 14.3 C
780 04-09-2011 12:00:02 24.9 C 54 % 14.95 C
781 04-09-2011 12:12:02 25.3 C 49 % 13.82 C
782 04-09-2011 12:24:02 25.6 C 50 % 14.41 C
783 04-09-2011 12:36:02 25.8 C 49 % 14.28 C
784 04-09-2011 12:48:01 25.8 C 48 % 13.96 C
785 04-09-2011 13:00:01 26 C 47 % 13.82 C
786 04-09-2011 13:12:01 26.7 C 45 % 13.78 C
787 04-09-2011 13:24:01 26.9 C 44 % 13.62 C
788 04-09-2011 13:36:01 26.4 C 45 % 13.51 C
789 04-09-2011 13:48:01 26.6 C 45 % 13.69 C
790 04-09-2011 14:00:01 26.2 C 44 % 12.99 C
791 04-09-2011 14:12:02 26.9 C 43 % 13.27 C
792 04-09-2011 14:24:01 27.4 C 40 % 12.61 C
793 04-09-2011 14:36:01 27.5 C 41 % 13.08 C
794 04-09-2011 14:48:01 27.3 C 41 % 12.9 C
795 04-09-2011 15:00:01 27.2 C 40 % 12.43 C
796 04-09-2011 15:12:02 27 C 41 % 12.63 C
797 04-09-2011 15:24:02 26.6 C 41 % 12.27 C
798 04-09-2011 15:36:01 26.5 C 45 % 13.6 C
799 04-09-2011 15:48:02 26 C 41 % 11.73 C
800 04-09-2011 16:00:02 25.9 C 43 % 12.37 C
Sensor: Nr:Datum:Temp:Feuchte:Taupunkt:
Aussen-T/F 801 04-09-2011 16:12:01 25.7 C 45 % 12.88 C
802 04-09-2011 16:24:02 24.6 C 47 % 12.54 C
803 04-09-2011 16:36:01 24.7 C 47 % 12.64 C
804 04-09-2011 16:48:02 22.9 C 57 % 13.93 C
805 04-09-2011 17:00:02 22 C 62 % 14.39 C
806 04-09-2011 17:12:02 22.3 C 62 % 14.67 C
807 04-09-2011 17:24:02 22.3 C 64 % 15.16 C
808 04-09-2011 17:36:02 22.3 C 65 % 15.4 C
809 04-09-2011 17:48:02 22.2 C 66 % 15.55 C
810 04-09-2011 18:00:02 21.9 C 69 % 15.96 C
811 04-09-2011 18:12:02 22 C 67 % 15.59 C
812 04-09-2011 18:24:01 22.2 C 65 % 15.31 C
813 04-09-2011 18:36:02 21.9 C 66 % 15.26 C
814 04-09-2011 18:48:02 21.8 C 65 % 14.93 C
815 04-09-2011 19:00:02 21.6 C 65 % 14.74 C
816 04-09-2011 19:12:02 21.3 C 67 % 14.93 C
817 04-09-2011 19:24:02 21.4 C 66 % 14.79 C
818 04-09-2011 19:36:02 21.1 C 68 % 14.97 C
819 04-09-2011 19:48:02 20.9 C 69 % 15 C
820 04-09-2011 20:00:02 20.8 C 69 % 14.91 C
821 04-09-2011 20:12:02 20.4 C 70 % 14.75 C
822 04-09-2011 20:24:02 20.5 C 70 % 14.84 C
823 04-09-2011 20:36:02 20.4 C 71 % 14.97 C
824 04-09-2011 20:48:02 20.5 C 70 % 14.84 C
825 04-09-2011 21:00:02 20.6 C 67 % 14.26 C
Sensor: Nr:Datum:Temp:Feuchte:Taupunkt:
Aussen-T/F 826 04-09-2011 21:12:02 20.6 C 67 % 14.26 C
827 04-09-2011 21:24:02 20.4 C 68 % 14.3 C
828 04-09-2011 21:36:02 20.3 C 67 % 13.97 C
829 04-09-2011 21:48:02 20 C 68 % 13.92 C
830 04-09-2011 22:00:02 19.5 C 71 % 14.1 C
831 04-09-2011 22:12:02 19.6 C 72 % 14.42 C
832 04-09-2011 22:25:03 19.4 C 72 % 14.22 C
833 04-09-2011 22:37:03 19.3 C 73 % 14.34 C
834 04-09-2011 22:49:03 19.1 C 74 % 14.36 C
835 04-09-2011 23:01:03 18.9 C 75 % 14.37 C
836 04-09-2011 23:13:03 18.8 C 75 % 14.28 C
837 04-09-2011 23:25:03 18.6 C 76 % 14.29 C
838 04-09-2011 23:37:03 18.5 C 76 % 14.19 C
839 04-09-2011 23:49:03 18.2 C 77 % 14.1 C

Legende:
   Min
   Max


Maximal/Minimal-Werte vom 29.08.2011 - 04.09.2011

Sensor Min Max Avg
Temp
(Aussen-T/F)
6.3 °C
31-08-2011  04:08:03
33 °C
03-09-2011  16:11:02
16.43 °C
Feuchte
(Aussen-T/F)
20 %
31-08-2011  14:56:03
93 %
31-08-2011  05:44:04
67.6 %
Taupunkt
(Aussen-T/F)
0.17 C
31-08-2011  14:56:03
19.65 C
03-09-2011  12:35:03
9.28 C

Die Daten stammen von einer Davis Vantage Pro 2 Wetter-Station und werden unter Linux mit der Software wview2wettercgi und aufbereitet. Alle Angaben erfolgen ohne Gewähr für ihre Vollständigkeit oder Richtigkeit.
Kontakt: Rainer Krienke krienke@uni-koblenz.de . Meine Webseiten an der Uni Koblenz oder privat.
Version: $Revision: 0.78 $